Time;durP1;ratioP1;P1;durP2;ratioP2;P2;SDS_P1;SDS_P2;PMS_P1;PMS_P2;Temp;Humidity;BMP_temperature;BMP_pressure;BME280_temperature;BME280_humidity;BME280_pressure;Samples;Min_cycle;Max_cycle;Signal;HPM_P1;HPM_P2
2022/11/17 00:01:27;;;;;;;10.70;4.78;;;-1.50;1.00;;;-1.42;83.90;98953.47;5129657;27;41240;-74
2022/11/17 00:03:55;;;;;;;14.02;6.30;;;-1.60;1.00;;;-1.46;84.87;98943.31;5148279;27;40266;-75
2022/11/17 00:06:24;;;;;;;10.13;5.10;;;-1.60;1.00;;;-1.47;85.15;98947.00;5148392;27;40090;-77
2022/11/17 00:08:53;;;;;;;12.20;5.45;;;-1.70;1.00;;;-1.51;85.10;98943.25;5129027;27;41480;-77
2022/11/17 00:11:22;;;;;;;12.23;5.70;;;-1.70;1.00;;;-1.49;85.62;98951.78;5158238;27;40986;-78
2022/11/17 00:16:39;;;;;;;9.52;5.35;;;-1.70;1.00;;;-1.61;85.06;98948.41;5132568;27;40341;-77
2022/11/17 00:21:55;;;;;;;13.27;6.75;;;-1.80;1.00;;;-1.62;85.90;98952.16;5171547;27;42143;-76
2022/11/17 00:24:24;;;;;;;10.57;5.90;;;-1.80;1.00;;;-1.46;85.53;98945.19;5153354;27;40784;-75
2022/11/17 00:27:04;;;;;;;10.10;5.60;;;-1.80;1.00;;;-1.49;85.18;98945.66;5169020;27;41104;-77
2022/11/17 00:29:33;;;;;;;9.60;5.68;;;-1.80;1.00;;;-1.58;85.62;98953.25;5168637;27;42084;-76
2022/11/17 00:34:48;;;;;;;;;;;-1.80;1.00;;;-1.41;85.33;98947.09;5172218;27;41057;-77
2022/11/17 00:37:17;;;;;;;9.93;5.38;;;-1.80;1.00;;;-1.28;84.95;98952.03;5168719;27;40135;-76
2022/11/17 00:39:46;;;;;;;11.85;6.22;;;-1.70;1.00;;;-1.36;84.70;98945.28;5152305;27;41562;-76
2022/11/17 00:42:14;;;;;;;11.48;5.90;;;-1.80;1.00;;;-1.48;85.39;98942.75;5168768;27;42232;-78
2022/11/17 00:44:43;;;;;;;10.00;5.43;;;-1.80;1.00;;;-1.74;86.33;98944.25;5153203;27;39749;-75
2022/11/17 00:47:13;;;;;;;12.93;5.30;;;-1.90;1.00;;;-1.99;87.92;98942.03;5168780;27;39857;-77
2022/11/17 00:49:41;;;;;;;10.35;5.55;;;-2.00;1.00;;;-1.86;88.15;98939.00;5167748;27;41722;-78
2022/11/17 00:52:10;;;;;;;10.73;5.70;;;-2.00;1.00;;;-1.75;87.93;98933.84;5168360;27;42018;-78
2022/11/17 00:54:39;;;;;;;9.68;5.60;;;-1.90;1.00;;;-1.79;87.74;98930.06;5152915;27;39607;-78
2022/11/17 00:57:07;;;;;;;8.30;4.88;;;-2.00;1.00;;;-2.03;88.38;98932.91;5168568;27;40278;-76
2022/11/17 00:59:35;;;;;;;9.32;5.75;;;-2.10;1.00;;;-2.09;89.34;98925.91;5168024;27;42582;-75
2022/11/17 01:02:04;;;;;;;10.77;5.90;;;-2.20;1.00;;;-1.94;88.32;98928.78;5152930;27;41030;-75
2022/11/17 01:04:34;;;;;;;13.23;6.43;;;-2.10;1.00;;;-1.87;88.14;98924.13;5153246;27;39596;-78
2022/11/17 01:07:03;;;;;;;12.23;5.70;;;-2.10;1.00;;;-1.90;88.48;98929.94;5135877;27;38531;-77
2022/11/17 01:09:31;;;;;;;12.98;6.93;;;-2.10;1.00;;;-1.93;89.11;98919.78;5167944;27;41792;-76
2022/11/17 01:12:00;;;;;;;11.48;5.63;;;-2.10;1.00;;;-2.02;89.54;98922.03;5168055;27;41346;-75
2022/11/17 01:14:31;;;;;;;10.63;5.68;;;-2.10;1.00;;;-2.20;90.41;98923.09;5167559;27;41168;-75
2022/11/17 01:16:59;;;;;;;11.77;6.07;;;-2.30;1.00;;;-2.11;90.71;98923.47;5168017;27;41726;-77
2022/11/17 01:19:28;;;;;;;12.48;6.22;;;-2.20;1.00;;;-2.21;91.18;98918.81;5152572;27;41900;-77
2022/11/17 01:21:58;;;;;;;10.93;5.90;;;-2.30;1.00;;;-2.17;90.22;98919.97;5167971;27;42415;-76
2022/11/17 01:24:26;;;;;;;12.73;6.22;;;-2.30;1.00;;;-2.16;90.33;98920.75;5167875;27;40039;-75
2022/11/17 01:26:55;;;;;;;9.38;6.10;;;-2.30;1.00;;;-2.20;90.73;98915.13;5167895;27;40138;-76
2022/11/17 01:29:23;;;;;;;8.73;5.72;;;-2.40;1.00;;;-2.33;91.01;98904.81;5167862;27;41841;-76
2022/11/17 01:31:53;;;;;;;11.05;6.30;;;-2.50;1.00;;;-2.58;92.98;98913.94;5152398;27;40085;-75
2022/11/17 01:34:21;;;;;;;10.77;5.70;;;-2.50;1.00;;;-2.68;92.36;98913.78;5167730;27;40264;-74
2022/11/17 01:39:37;;;;;;;11.30;6.20;;;-2.80;1.00;;;-2.94;93.72;98901.91;5169993;27;41923;-77
2022/11/17 01:42:15;;;;;;;9.95;5.75;;;-2.80;1.00;;;-2.92;94.00;98902.47;5167687;27;42979;-75
2022/11/17 01:45:00;;;;;;;10.80;6.10;;;-2.90;1.00;;;-2.96;94.48;98891.53;5167851;27;40642;-75
2022/11/17 01:47:39;;;;;;;14.27;7.10;;;-2.90;1.00;;;-3.02;95.03;98892.47;5167701;27;40880;-76
2022/11/17 01:50:19;;;;;;;12.77;6.07;;;-3.00;1.00;;;-3.12;95.64;98884.28;5152100;27;41984;-77
2022/11/17 01:52:52;;;;;;;11.07;5.65;;;-3.00;1.00;;;-3.22;96.25;98892.88;5171091;27;42122;-74
2022/11/17 01:55:25;;;;;;;11.50;5.97;;;-3.00;1.00;;;-3.08;96.69;98883.59;5171520;27;40992;-77
2022/11/17 01:57:58;;;;;;;14.35;6.05;;;-2.90;1.00;;;-2.79;95.42;98893.38;5171355;27;41081;-76
2022/11/17 02:00:27;;;;;;;10.75;5.78;;;-2.80;1.00;;;-2.65;94.73;98886.75;5171066;27;42293;-76
2022/11/17 02:02:56;;;;;;;13.95;6.65;;;-2.80;1.00;;;-2.73;95.12;98889.78;5171326;27;42085;-77
2022/11/17 02:05:41;;;;;;;13.55;5.82;;;-2.70;1.00;;;-2.82;95.91;98883.25;5138097;27;40760;-77
2022/11/17 02:08:11;;;;;;;11.75;5.90;;;-2.80;1.00;;;-2.90;96.04;98879.94;5171095;27;41358;-77
2022/11/17 02:10:41;;;;;;;11.00;5.65;;;-2.80;1.00;;;-2.92;96.37;98884.66;5155648;27;42183;-75
2022/11/17 02:13:10;;;;;;;7.93;5.57;;;-2.70;1.00;;;-2.89;96.22;98876.22;5152102;27;41127;-75
2022/11/17 02:15:39;;;;;;;13.80;6.75;;;-2.70;1.00;;;-2.99;95.81;98873.41;5155374;27;39543;-77
2022/11/17 02:18:07;;;;;;;12.60;5.97;;;-2.80;1.00;;;-3.04;96.22;98873.28;5171133;27;41066;-77
2022/11/17 02:21:17;;;;;;;11.93;6.63;;;-2.80;1.00;;;-3.14;95.53;98881.09;5170780;27;41856;-76
2022/11/17 02:24:20;;;;;;;13.23;7.28;;;-2.90;1.00;;;-3.13;96.09;98875.53;5145432;27;41618;-74
2022/11/17 02:27:34;;;;;;;12.55;6.95;;;-2.90;1.00;;;-3.20;96.19;98880.16;5170419;27;40891;-75
2022/11/17 02:30:06;;;;;;;11.43;5.65;;;-3.00;1.00;;;-3.36;96.30;98876.41;5170478;27;40553;-76
2022/11/17 02:32:48;;;;;;;11.48;5.93;;;-3.10;1.00;;;-3.34;96.13;98869.03;5170185;27;41765;-78
2022/11/17 02:35:24;;;;;;;11.82;6.45;;;-3.20;1.00;;;-3.39;96.82;98866.28;5170399;27;41326;-76
2022/11/17 02:38:04;;;;;;;14.27;6.83;;;-3.30;1.00;;;-3.44;96.98;98864.31;5155651;27;39973;-75
2022/11/17 02:40:39;;;;;;;13.65;6.57;;;-3.40;1.00;;;-3.42;97.90;98866.75;5173882;27;39937;-77
2022/11/17 02:46:07;;;;;;;13.88;7.47;;;-3.50;1.00;;;-3.54;99.81;98861.47;5137976;27;41696;-76
2022/11/17 02:48:40;;;;;;;16.38;9.20;;;-3.50;1.00;;;-3.55;100.00;98862.53;5155503;27;40345;-77
2022/11/17 02:51:14;;;;;;;14.00;8.52;;;-3.50;1.00;;;-3.54;100.00;98864.13;5151561;27;40024;-76
2022/11/17 02:53:43;;;;;;;17.00;9.13;;;-3.50;1.00;;;-3.60;100.00;98859.75;5170261;27;41965;-76
2022/11/17 02:56:11;;;;;;;18.67;9.07;;;-3.40;1.00;;;-3.54;100.00;98853.50;5170353;27;41326;-76
2022/11/17 02:58:41;;;;;;;18.52;9.85;;;-3.40;1.00;;;-3.42;100.00;98861.44;5169310;27;41269;-75
2022/11/17 03:01:45;;;;;;;15.52;8.10;;;-3.40;1.00;;;-3.59;100.00;98866.66;5154732;27;40289;-76
2022/11/17 03:04:30;;;;;;;15.32;8.77;;;-3.40;1.00;;;-3.42;100.00;98866.75;5170034;27;42442;-76
2022/11/17 03:07:15;;;;;;;16.67;8.70;;;-3.40;1.00;;;-3.39;99.33;98855.66;5154564;27;42712;-77
2022/11/17 03:09:56;;;;;;;16.20;9.65;;;-3.40;1.00;;;-3.34;98.87;98853.09;5170281;27;40281;-77
2022/11/17 03:12:31;;;;;;;16.58;9.55;;;-3.40;1.00;;;-3.32;98.50;98856.34;5169776;27;39580;-76
2022/11/17 03:15:13;;;;;;;15.88;8.52;;;-3.40;1.00;;;-3.36;99.21;98849.88;5154483;27;40608;-77
2022/11/17 03:17:49;;;;;;;17.83;8.98;;;-3.40;1.00;;;-3.40;99.36;98856.69;5169651;27;41141;-77
2022/11/17 03:20:24;;;;;;;15.98;9.70;;;-3.30;1.00;;;-3.22;98.58;98854.94;5154598;27;39630;-77
2022/11/17 03:22:59;;;;;;;13.38;8.13;;;-3.30;1.00;;;-3.37;98.70;98856.22;5151479;27;41916;-76
2022/11/17 03:25:31;;;;;;;15.73;8.25;;;-3.30;1.00;;;-3.33;98.54;98865.34;5169313;27;42569;-76
2022/11/17 03:28:07;;;;;;;13.93;7.47;;;-3.30;1.00;;;-3.29;97.74;98863.00;5169715;27;42104;-76
2022/11/17 03:30:42;;;;;;;16.25;7.15;;;-3.30;1.00;;;-3.33;97.99;98849.41;5154228;27;39756;-76
2022/11/17 03:33:17;;;;;;;14.85;7.38;;;-3.30;1.00;;;-3.36;97.63;98852.53;5169397;27;40674;-76
2022/11/17 03:35:52;;;;;;;12.15;7.35;;;-3.30;1.00;;;-3.31;97.05;98842.00;5169048;27;41878;-77
2022/11/17 03:38:25;;;;;;;15.13;7.65;;;-3.40;1.00;;;-3.29;96.90;98844.44;5128994;27;41041;-76
2022/11/17 03:40:59;;;;;;;13.05;7.85;;;-3.30;1.00;;;-3.25;97.27;98846.38;5141099;27;40415;-80
2022/11/17 03:43:30;;;;;;;12.40;7.32;;;-3.30;1.00;;;-3.20;97.61;98847.53;5133534;27;39662;-77
2022/11/17 03:46:06;;;;;;;11.63;6.75;;;-3.30;1.00;;;-3.20;97.18;98843.00;5147951;27;42870;-76
2022/11/17 03:48:40;;;;;;;12.40;7.00;;;-3.30;1.00;;;-3.18;97.33;98856.03;5150670;27;41058;-77
2022/11/17 03:51:14;;;;;;;13.60;6.93;;;-3.20;1.00;;;-2.93;96.22;98853.88;5146843;27;41661;-78
2022/11/17 03:53:44;;;;;;;11.27;6.18;;;-3.10;1.00;;;-2.79;95.03;98854.38;5168537;27;41103;-77
2022/11/17 03:56:31;;;;;;;13.60;6.55;;;-3.10;1.00;;;-3.00;95.07;98853.19;5169395;27;42817;-78
2022/11/17 03:59:04;;;;;;;11.98;6.25;;;-3.20;1.00;;;-3.16;95.94;98853.97;5153682;27;40094;-78
2022/11/17 04:01:36;;;;;;;10.77;6.30;;;-3.20;1.00;;;-3.27;96.72;98852.97;5168427;27;40949;-79
2022/11/17 04:04:05;;;;;;;13.32;5.93;;;-3.30;1.00;;;-3.12;96.67;98844.47;5168170;27;40914;-79
2022/11/17 04:06:34;;;;;;;12.30;5.93;;;-3.20;1.00;;;-3.19;96.15;98849.16;5153598;27;42016;-76
2022/11/17 04:09:02;;;;;;;11.68;5.95;;;-3.20;1.00;;;-3.16;96.72;98846.03;5153481;27;41110;-78
2022/11/17 04:17:04;;;;;;;8.85;5.57;;;-3.10;1.00;;;-3.16;96.27;98848.66;5168241;27;41490;-75
2022/11/17 04:19:36;;;;;;;14.77;7.00;;;-3.20;1.00;;;-3.14;96.40;98846.56;5169002;27;41377;-76
2022/11/17 04:22:04;;;;;;;18.27;7.50;;;-3.20;1.00;;;-3.00;95.99;98853.19;5169262;27;40121;-79
2022/11/17 04:24:33;;;;;;;13.98;7.30;;;-3.10;1.00;;;-3.00;95.63;98850.53;5168660;27;40078;-77
2022/11/17 04:29:47;;;;;;;14.05;7.95;;;-3.20;1.00;;;-3.02;95.86;98847.31;5161041;27;41333;-76
2022/11/17 04:32:17;;;;;;;16.25;7.93;;;-3.20;1.00;;;-3.00;95.74;98847.88;5156795;27;40369;-76
2022/11/17 04:34:45;;;;;;;13.55;6.70;;;-3.20;1.00;;;-3.17;95.95;98857.66;5150227;27;41368;-75
2022/11/17 04:37:17;;;;;;;11.40;6.97;;;-3.20;1.00;;;-3.22;96.25;98854.94;5147906;27;41687;-72
2022/11/17 04:39:45;;;;;;;13.32;6.47;;;-3.30;1.00;;;-3.17;96.07;98847.06;5149500;27;42250;-75
2022/11/17 04:42:13;;;;;;;12.68;5.13;;;-3.30;1.00;;;-3.09;95.70;98857.28;5147156;27;41504;-77
2022/11/17 04:44:41;;;;;;;11.30;5.25;;;-3.20;1.00;;;-3.22;95.97;98857.59;5147707;27;40718;-76
2022/11/17 04:47:10;;;;;;;13.57;5.68;;;-3.30;1.00;;;-3.43;96.71;98854.50;5132297;27;40580;-77
2022/11/17 04:49:40;;;;;;;12.10;5.93;;;-3.40;1.00;;;-3.37;97.38;98853.56;5149362;27;40815;-77
2022/11/17 04:52:08;;;;;;;9.57;5.65;;;-3.40;1.00;;;-3.40;97.51;98847.94;5146849;27;40212;-77
2022/11/17 04:54:36;;;;;;;11.27;6.07;;;-3.40;1.00;;;-3.39;97.41;98847.69;5132345;27;39809;-77
2022/11/17 04:57:05;;;;;;;11.00;5.22;;;-3.40;1.00;;;-3.18;96.42;98848.09;5131858;27;40780;-77
2022/11/17 04:59:33;;;;;;;13.10;6.45;;;-3.30;1.00;;;-3.16;95.84;98846.03;5147094;27;42267;-78
2022/11/17 05:02:02;;;;;;;11.55;5.43;;;-3.30;1.00;;;-3.03;94.82;98851.03;5147089;27;41214;-77
2022/11/17 05:07:17;;;;;;;11.30;5.07;;;-3.30;1.00;;;-3.25;95.61;98833.09;5147037;27;41801;-75
2022/11/17 05:09:46;;;;;;;10.00;5.60;;;-3.40;1.00;;;-3.30;96.18;98833.03;5147152;27;41232;-78
2022/11/17 05:15:00;;;;;;;13.65;5.53;;;-3.40;1.00;;;-3.45;96.97;98830.06;5147213;27;40385;-77
2022/11/17 05:17:27;;;;;;;15.98;6.60;;;-3.50;1.00;;;-3.32;97.01;98827.16;5146888;27;42181;-77
2022/11/17 05:19:57;;;;;;;13.82;5.55;;;-3.50;1.00;;;-3.27;96.41;98827.25;5147188;27;41497;-76
2022/11/17 05:25:12;;;;;;;10.90;6.85;;;-3.50;1.00;;;-3.04;95.08;98830.81;5147089;27;40128;-77
2022/11/17 05:27:41;;;;;;;17.77;7.43;;;-3.40;1.00;;;-2.90;94.22;98837.47;5131713;27;40858;-77
2022/11/17 05:30:11;;;;;;;14.45;6.68;;;-3.30;1.00;;;-3.02;93.99;98835.88;5146832;27;41798;-76
2022/11/17 05:32:40;;;;;;;16.98;8.57;;;-3.30;1.00;;;-3.17;94.93;98841.75;5146619;27;42180;-76
2022/11/17 05:35:10;;;;;;;14.38;7.68;;;-3.40;1.00;;;-3.26;95.02;98844.78;5131781;27;39632;-76
2022/11/17 05:37:40;;;;;;;13.23;7.32;;;-3.50;1.00;;;-3.03;94.98;98843.06;5146673;27;41603;-76
2022/11/17 05:40:10;;;;;;;18.05;10.40;;;-3.40;1.00;;;-2.95;94.27;98844.53;5149079;27;41508;-78
2022/11/17 05:42:38;;;;;;;15.80;9.68;;;-3.30;1.00;;;-2.83;93.95;98844.47;5146480;27;39944;-72
2022/11/17 05:45:09;;;;;;;16.13;7.47;;;-3.20;1.00;;;-2.74;92.72;98840.38;5131412;27;38592;-74
2022/11/17 05:47:37;;;;;;;12.60;6.95;;;-3.20;1.00;;;-2.85;93.09;98842.06;5146481;27;41780;-72
2022/11/17 05:50:07;;;;;;;15.30;6.90;;;-3.30;1.00;;;-3.03;92.80;98843.06;5146273;27;41294;-72
2022/11/17 05:52:35;;;;;;;17.70;7.05;;;-3.30;1.00;;;-2.90;93.40;98832.16;5145767;27;40324;-73
2022/11/17 05:55:07;;;;;;;15.15;7.95;;;-3.30;1.00;;;-3.06;94.00;98832.91;5146512;27;40053;-71
2022/11/17 05:57:35;;;;;;;13.88;7.18;;;-3.30;1.00;;;-3.04;94.44;98830.81;5145907;27;41801;-72
2022/11/17 06:00:05;;;;;;;14.07;7.82;;;-3.30;1.00;;;-3.17;94.78;98836.44;5146177;27;41285;-74
2022/11/17 06:02:47;;;;;;;12.40;6.90;;;-3.40;1.00;;;-3.18;94.95;98824.19;5146423;27;40242;-72
2022/11/17 06:05:16;;;;;;;13.75;7.72;;;-3.40;1.00;;;-3.23;95.34;98826.75;5146392;27;41339;-72
2022/11/17 06:07:45;;;;;;;13.23;6.95;;;-3.40;1.00;;;-3.08;94.71;98824.38;5146493;27;41761;-75
2022/11/17 06:10:15;;;;;;;12.10;6.30;;;-3.40;1.00;;;-3.11;93.55;98819.56;5146256;27;41597;-73
2022/11/17 06:12:44;;;;;;;15.45;7.03;;;-3.40;1.00;;;-3.17;94.25;98817.84;5146251;27;40337;-73
2022/11/17 06:15:12;;;;;;;12.77;7.07;;;-3.40;1.00;;;-3.16;93.99;98814.16;5146492;27;40096;-72
2022/11/17 06:17:47;;;;;;;11.00;6.70;;;-3.40;1.00;;;-3.10;94.18;98805.22;5146132;27;42576;-71
2022/11/17 06:20:22;;;;;;;10.55;6.45;;;-3.40;1.00;;;-3.06;93.78;98806.38;5146280;27;41471;-71
2022/11/17 06:22:51;;;;;;;13.57;7.20;;;-3.30;1.00;;;-3.05;93.04;98801.84;5145557;27;41364;-71
2022/11/17 06:25:21;;;;;;;11.48;5.68;;;-3.30;1.00;;;-3.13;92.74;98789.78;5146047;27;40930;-70
2022/11/17 06:27:52;;;;;;;12.77;6.47;;;-3.40;1.00;;;-3.28;93.67;98798.28;5145812;27;42658;-73
2022/11/17 06:30:20;;;;;;;10.80;6.13;;;-3.40;1.00;;;-3.10;93.12;98794.59;5146101;27;41374;-78
2022/11/17 06:32:50;;;;;;;11.65;6.55;;;-3.40;1.00;;;-2.99;92.01;98791.09;5146524;27;40592;-80
2022/11/17 06:35:18;;;;;;;13.13;7.47;;;-3.40;1.00;;;-3.09;91.66;98801.53;5146223;27;41482;-71
2022/11/17 06:37:47;;;;;;;11.15;6.63;;;-3.40;1.00;;;-2.99;91.67;98806.19;5147632;27;41729;-71
2022/11/17 06:40:16;;;;;;;12.75;6.63;;;-3.40;1.00;;;-3.04;91.90;98801.59;5152329;27;42160;-77
2022/11/17 06:43:07;;;;;;;17.08;6.50;;;-3.40;1.00;;;-2.85;91.38;98802.22;5149444;27;41189;-71
2022/11/17 06:45:37;;;;;;;14.82;7.40;;;-3.30;1.00;;;-2.78;90.58;98797.53;5149501;27;40866;-71
2022/11/17 06:48:07;;;;;;;12.45;6.40;;;-3.20;1.00;;;-2.58;90.05;98791.75;5148643;27;41763;-70
2022/11/17 06:50:35;;;;;;;10.20;6.68;;;-3.20;1.00;;;-2.61;89.94;98802.84;5149175;27;41196;-71
2022/11/17 06:53:06;;;;;;;12.55;6.78;;;-3.20;1.00;;;-2.47;88.85;98803.31;5146485;27;40090;-70
2022/11/17 06:55:35;;;;;;;11.15;6.57;;;-3.10;1.00;;;-2.40;88.57;98798.66;5170053;27;41043;-70
2022/11/17 06:58:10;;;;;;;10.68;6.65;;;-3.00;1.00;;;-2.42;88.69;98799.94;5154372;27;41461;-72
2022/11/17 07:00:39;;;;;;;13.23;7.25;;;-3.00;1.00;;;-2.41;88.65;98791.72;5136219;27;40826;-71
2022/11/17 07:03:10;;;;;;;15.23;7.00;;;-3.00;1.00;;;-2.40;88.00;98789.88;5171532;27;40080;-71
2022/11/17 07:05:39;;;;;;;12.10;6.93;;;-3.00;1.00;;;-2.40;88.32;98788.03;5135725;27;39012;-72
2022/11/17 07:08:09;;;;;;;12.40;7.32;;;-3.00;1.00;;;-2.43;89.24;98793.00;5166463;27;41502;-70
2022/11/17 07:10:38;;;;;;;12.85;7.50;;;-3.00;1.00;;;-2.33;89.07;98787.84;5169669;27;41994;-70
2022/11/17 07:13:08;;;;;;;13.65;7.72;;;-2.90;1.00;;;-2.30;88.69;98795.34;5169162;27;41308;-70
2022/11/17 07:15:36;;;;;;;13.48;7.75;;;-2.90;1.00;;;-2.20;89.11;98798.16;5164396;27;41073;-72
2022/11/17 07:18:05;;;;;;;13.23;7.22;;;-2.80;1.00;;;-2.24;88.73;98794.38;5169549;27;42526;-71
2022/11/17 07:20:33;;;;;;;11.05;6.85;;;-2.80;1.00;;;-2.37;87.65;98792.88;5154096;27;39974;-72
2022/11/17 07:23:01;;;;;;;11.15;6.80;;;-2.90;1.00;;;-2.56;89.34;98786.97;5169460;27;40312;-70
2022/11/17 07:25:30;;;;;;;12.15;6.93;;;-3.00;1.00;;;-2.56;89.73;98791.50;5169093;27;40185;-70
2022/11/17 07:27:59;;;;;;;13.93;6.72;;;-3.10;1.00;;;-2.19;88.94;98794.44;5154084;27;41108;-72
2022/11/17 07:30:29;;;;;;;15.77;7.70;;;-2.80;1.00;;;-2.31;88.15;98780.44;5169538;27;42129;-72
2022/11/17 07:32:59;;;;;;;11.95;6.75;;;-2.90;1.00;;;-2.34;88.61;98780.91;5168877;27;40130;-70
2022/11/17 07:35:28;;;;;;;10.43;7.03;;;-2.90;1.00;;;-2.10;88.21;98786.03;5168993;27;39920;-71
2022/11/17 07:38:01;;;;;;;13.60;7.07;;;-2.70;1.00;;;-2.10;87.56;98775.38;5168848;27;42402;-72
2022/11/17 07:40:30;;;;;;;14.32;7.75;;;-2.80;1.00;;;-1.88;86.64;98773.56;5172072;27;42212;-72
2022/11/17 07:42:58;;;;;;;12.27;7.32;;;-2.60;1.00;;;-1.71;86.46;98781.47;5169537;27;40206;-72
2022/11/17 07:45:28;;;;;;;11.98;7.03;;;-2.40;1.00;;;-1.97;85.96;98779.56;5169486;27;40821;-70
2022/11/17 07:47:58;;;;;;;10.73;6.30;;;-2.70;1.00;;;-2.04;86.58;98775.22;5169496;27;41540;-71
2022/11/17 07:50:27;;;;;;;10.45;6.63;;;-2.80;1.00;;;-2.29;87.61;98778.34;5169741;27;41397;-71
2022/11/17 07:52:57;;;;;;;11.32;7.20;;;-2.80;1.00;;;-2.10;88.37;98781.53;5169835;27;40947;-72
2022/11/17 07:55:26;;;;;;;10.80;6.25;;;-2.70;1.00;;;-2.00;87.98;98786.16;5170024;27;40090;-71
2022/11/17 07:57:57;;;;;;;9.50;6.07;;;-2.60;1.00;;;-2.20;88.02;98771.56;5150400;27;41815;-72
2022/11/17 08:00:26;;;;;;;10.27;5.85;;;-2.80;1.00;;;-2.13;87.61;98775.91;5172266;27;40578;-72
2022/11/17 08:03:00;;;;;;;11.88;5.70;;;-2.80;1.00;;;-2.09;87.85;98779.66;5168626;27;42268;-72
2022/11/17 08:05:29;;;;;;;8.50;5.43;;;-2.70;1.00;;;-2.03;87.48;98770.69;5169308;27;41841;-73
2022/11/17 08:07:59;;;;;;;8.27;5.50;;;-2.70;1.00;;;-1.96;86.87;98787.28;5169000;27;42113;-71
2022/11/17 08:10:30;;;;;;;9.35;5.10;;;-2.60;1.00;;;-2.04;86.98;98779.72;5153750;27;40931;-71
2022/11/17 08:12:59;;;;;;;10.00;5.50;;;-2.70;1.00;;;-2.01;87.49;98779.22;5168615;27;40994;-72
2022/11/17 08:15:28;;;;;;;10.75;6.28;;;-2.60;1.00;;;-2.14;87.93;98774.28;5169040;27;41395;-71
2022/11/17 08:18:00;;;;;;;14.82;6.82;;;-2.60;1.00;;;-2.21;89.13;98764.63;5168596;27;41710;-71
2022/11/17 08:20:30;;;;;;;8.98;5.75;;;-2.70;1.00;;;-2.01;88.37;98779.22;5168773;27;42435;-72
2022/11/17 08:22:58;;;;;;;14.63;6.97;;;-2.60;1.00;;;-2.02;88.53;98761.69;5169137;27;41453;-70
2022/11/17 08:25:27;;;;;;;10.60;6.43;;;-2.60;1.00;;;-1.82;87.92;98764.59;5168420;27;40862;-71
2022/11/17 08:27:57;;;;;;;11.55;6.47;;;-2.40;1.00;;;-2.21;88.48;98764.63;5167881;27;41389;-72
2022/11/17 08:30:27;;;;;;;10.73;6.25;;;-2.60;1.00;;;-2.40;89.62;98763.28;5168635;27;42087;-72
2022/11/17 08:32:57;;;;;;;12.70;7.10;;;-2.80;1.00;;;-2.44;91.22;98756.88;5168495;27;40992;-71
2022/11/17 08:35:26;;;;;;;11.80;6.80;;;-2.80;1.00;;;-2.35;90.73;98760.72;5167165;27;40283;-71
2022/11/17 08:37:55;;;;;;;12.90;7.20;;;-2.80;1.00;;;-2.23;90.79;98756.09;5166979;27;41678;-71
2022/11/17 08:40:25;;;;;;;11.05;6.53;;;-2.70;1.00;;;-1.88;89.77;98752.28;5159485;27;42276;-72
2022/11/17 08:42:54;;;;;;;12.38;5.75;;;-2.50;1.00;;;-2.16;88.22;98750.59;5147549;27;40247;-71
2022/11/17 08:45:23;;;;;;;9.77;5.15;;;-2.70;1.00;;;-2.36;89.56;98754.59;5147082;27;40050;-71
2022/11/17 08:47:53;;;;;;;9.75;5.65;;;-2.80;1.00;;;-2.17;88.24;98747.16;5150474;27;20138;-72
2022/11/17 08:50:23;;;;;;;11.63;6.32;;;-2.70;1.00;;;-2.36;89.20;98748.47;5166352;27;41316;-71
2022/11/17 08:52:53;;;;;;;9.75;6.70;;;-2.80;1.00;;;-2.31;89.77;98748.53;5167533;27;40904;-71
2022/11/17 08:55:21;;;;;;;14.93;8.05;;;-2.80;1.00;;;-2.15;89.28;98746.91;5167789;27;40700;-72
2022/11/17 08:57:49;;;;;;;14.30;8.90;;;-2.60;1.00;;;-2.37;89.28;98747.69;5134901;27;40854;-72
2022/11/17 09:00:20;;;;;;;10.55;6.88;;;-2.80;1.00;;;-2.28;89.44;98742.72;5165679;27;41148;-71
2022/11/17 09:02:48;;;;;;;15.20;7.57;;;-2.70;1.00;;;-2.39;89.95;98739.13;5141731;27;40734;-71
2022/11/17 09:05:17;;;;;;;9.70;6.88;;;-2.70;1.00;;;-2.35;90.36;98720.84;5146793;27;40028;-70
2022/11/17 09:07:47;;;;;;;11.90;6.47;;;-2.70;1.00;;;-2.31;89.74;98716.63;5146400;27;41633;-71
2022/11/17 09:10:16;;;;;;;11.73;6.47;;;-2.60;1.00;;;-2.17;89.81;98711.75;5159370;27;41275;-71
2022/11/17 09:12:44;;;;;;;11.52;6.55;;;-2.60;1.00;;;-1.85;88.25;98709.22;5167527;27;40817;-71
2022/11/17 09:15:13;;;;;;;8.63;5.65;;;-2.50;1.00;;;-1.89;87.92;98718.75;5152019;27;39533;-71
2022/11/17 09:17:46;;;;;;;12.18;6.32;;;-2.40;1.00;;;-1.58;87.55;98723.59;5166776;27;41653;-71
2022/11/17 09:20:15;;;;;;;11.60;6.00;;;-2.30;1.00;;;-1.76;87.26;98717.56;5168006;27;41333;-72
2022/11/17 09:22:44;;;;;;;13.00;6.55;;;-2.30;1.00;;;-1.88;87.77;98709.72;5167663;27;40214;-72
2022/11/17 09:25:15;;;;;;;8.50;5.60;;;-2.30;1.00;;;-1.79;86.64;98707.44;5167522;27;40642;-71
2022/11/17 09:27:44;;;;;;;10.18;5.07;;;-2.40;1.00;;;-1.82;86.54;98708.72;5167271;27;42704;-71
2022/11/17 09:30:13;;;;;;;9.82;5.15;;;-2.40;1.00;;;-2.05;87.52;98712.44;5167548;27;41263;-71
2022/11/17 09:32:41;;;;;;;9.95;4.97;;;-2.50;1.00;;;-2.44;89.68;98701.06;5149636;27;40935;-72
2022/11/17 09:35:10;;;;;;;8.30;5.60;;;-2.70;1.00;;;-2.44;90.60;98696.53;5146294;27;40279;-71
2022/11/17 09:37:38;;;;;;;9.48;5.20;;;-2.70;1.00;;;-2.39;90.92;98698.47;5146285;27;41796;-71
2022/11/17 09:40:13;;;;;;;11.70;5.47;;;-2.60;1.00;;;-2.42;91.52;98686.47;5151105;27;41220;-71
2022/11/17 09:42:43;;;;;;;9.05;5.60;;;-2.60;1.00;;;-2.18;90.62;98681.72;5145872;27;41238;-72
2022/11/17 09:45:18;;;;;;;9.15;5.45;;;-2.50;1.00;;;-2.05;89.50;98677.09;5160908;27;42522;-72
2022/11/17 09:47:55;;;;;;;11.10;4.93;;;-2.40;1.00;;;-1.97;89.01;98678.50;5166918;27;41473;-69
2022/11/17 09:50:29;;;;;;;9.48;5.00;;;-2.40;1.00;;;-2.15;89.50;98679.63;5166425;27;41209;-71
2022/11/17 09:53:11;;;;;;;10.68;5.07;;;-2.50;1.00;;;-2.28;90.19;98678.16;5159928;27;40244;-72
2022/11/17 09:55:42;;;;;;;8.65;5.18;;;-2.60;1.00;;;-1.97;89.49;98684.63;5144786;27;39522;-70
2022/11/17 09:58:29;;;;;;;8.50;4.15;;;-2.40;1.00;;;-1.94;88.96;98686.78;5150518;27;41666;-72
2022/11/17 10:00:58;;;;;;;8.50;4.88;;;-2.40;1.00;;;-1.68;88.86;98671.09;5146702;27;42146;-72
2022/11/17 10:03:31;;;;;;;8.65;5.90;;;-2.30;1.00;;;-2.00;88.28;98671.81;5145942;27;40319;-73
2022/11/17 10:06:03;;;;;;;14.65;8.23;;;-2.40;1.00;;;-2.10;89.05;98663.72;5157869;27;39639;-70
2022/11/17 10:08:39;;;;;;;10.30;5.47;;;-2.50;1.00;;;-2.01;88.90;98667.53;5166366;27;41610;-72
2022/11/17 10:13:57;;;;;;;8.70;5.70;;;-2.40;1.00;;;-2.09;89.09;98662.69;5173257;27;40051;-72
2022/11/17 10:16:25;;;;;;;12.13;5.03;;;-2.40;1.00;;;-1.98;88.91;98656.41;5151441;27;40564;-73
2022/11/17 10:18:54;;;;;;;9.60;5.30;;;-2.40;1.00;;;-2.00;88.21;98648.69;5149510;27;41809;-71
2022/11/17 10:21:23;;;;;;;9.40;5.35;;;-2.40;1.00;;;-1.90;87.58;98648.00;5149681;27;42211;-71
2022/11/17 10:23:58;;;;;;;7.85;5.28;;;-2.40;1.00;;;-1.87;87.51;98652.81;5134098;27;39062;-71
2022/11/17 10:26:27;;;;;;;10.80;6.45;;;-2.40;1.00;;;-1.63;87.11;98642.66;5149236;27;39918;-71
2022/11/17 10:29:13;;;;;;;12.77;5.47;;;-2.20;1.00;;;-1.72;87.05;98643.38;5149377;27;41633;-71
2022/11/17 10:31:44;;;;;;;10.15;5.93;;;-2.20;1.00;;;-1.71;86.77;98637.81;5133767;27;41596;-69
2022/11/17 10:34:30;;;;;;;8.75;5.18;;;-2.20;1.00;;;-1.41;85.73;98635.66;5154431;27;42010;-72
2022/11/17 10:37:07;;;;;;;10.13;5.20;;;-2.10;1.00;;;-1.14;84.19;98625.78;5171195;27;40667;-70
2022/11/17 10:39:40;;;;;;;9.02;5.78;;;-2.00;1.00;;;-0.88;84.03;98625.13;5154121;27;42487;-70
2022/11/17 10:42:26;;;;;;;8.85;5.43;;;-1.70;1.00;;;-1.14;83.02;98617.78;5149335;27;41267;-73
2022/11/17 10:45:01;;;;;;;10.68;6.20;;;-2.00;1.00;;;-1.07;83.20;98622.88;5149107;27;41031;-73
2022/11/17 10:47:33;;;;;;;9.77;5.72;;;-1.90;1.00;;;-1.28;83.98;98624.56;5148884;27;41171;-72
2022/11/17 10:50:20;;;;;;;12.07;6.88;;;-2.00;1.00;;;-1.40;84.65;98614.13;5148579;27;42471;-71
2022/11/17 10:52:50;;;;;;;9.98;5.75;;;-2.00;1.00;;;-1.44;84.85;98607.69;5149147;27;41350;-72
2022/11/17 10:55:27;;;;;;;8.23;5.82;;;-2.00;1.00;;;-1.35;84.78;98600.06;5149035;27;41083;-73
2022/11/17 10:58:01;;;;;;;8.65;5.68;;;-2.00;1.00;;;-1.23;84.09;98592.69;5149053;27;40333;-72
2022/11/17 11:00:34;;;;;;;10.80;7.30;;;-1.90;1.00;;;-1.23;84.28;98592.69;5133258;27;40631;-71
2022/11/17 11:03:18;;;;;;;9.88;6.88;;;-2.00;1.00;;;-1.45;84.64;98590.94;5148866;27;41425;-71
2022/11/17 11:06:07;;;;;;;8.48;5.88;;;-2.00;1.00;;;-1.56;85.27;98583.91;5148003;27;40593;-72
2022/11/17 11:08:47;;;;;;;9.23;5.70;;;-2.00;1.00;;;-1.57;85.69;98581.50;5147964;27;39844;-72
2022/11/17 11:11:29;;;;;;;11.27;5.40;;;-2.10;1.00;;;-1.40;85.29;98582.19;5148886;27;43526;-71
2022/11/17 11:14:01;;;;;;;9.35;5.88;;;-2.00;1.00;;;-1.37;85.38;98580.84;5133251;27;40940;-70